Time;durP1;ratioP1;P1;durP2;ratioP2;P2;SDS_P1;SDS_P2;PMS_P1;PMS_P2;Temp;Humidity;BMP_temperature;BMP_pressure;BME280_temperature;BME280_humidity;BME280_pressure;Samples;Min_cycle;Max_cycle;Signal;HPM_P1;HPM_P2
2022/03/08 00:00:04;;;;;;;21.13;16.33;;;1.10;51.00;;;;;;5016764;28;20209;-87
2022/03/08 00:02:30;;;;;;;16.73;15.13;;;1.00;51.30;;;;;;5024339;28;20268;-88
2022/03/08 00:04:56;;;;;;;17.73;14.63;;;1.20;51.30;;;;;;5040207;28;20224;-88
2022/03/08 00:07:21;;;;;;;17.27;15.27;;;1.20;51.30;;;;;;5021968;28;20699;-88
2022/03/08 00:09:47;;;;;;;16.77;14.97;;;1.20;51.00;;;;;;5026477;28;20194;-88
2022/03/08 00:12:13;;;;;;;18.60;15.17;;;1.30;51.20;;;;;;5033760;28;20184;-88
2022/03/08 00:14:39;;;;;;;16.13;14.53;;;1.30;50.90;;;;;;5001515;28;20232;-88
2022/03/08 00:17:04;;;;;;;17.53;14.93;;;1.40;50.20;;;;;;5035363;28;20197;-88
2022/03/08 00:19:30;;;;;;;16.17;14.57;;;1.50;49.20;;;;;;5007438;28;20673;-88
2022/03/08 00:21:56;;;;;;;16.60;14.90;;;1.60;48.90;;;;;;5026787;28;20181;-88
2022/03/08 00:24:22;;;;;;;15.97;14.27;;;1.70;48.90;;;;;;5025540;28;20668;-88
2022/03/08 00:26:47;;;;;;;17.70;15.63;;;1.70;49.00;;;;;;5025834;28;20212;-87
2022/03/08 00:29:13;;;;;;;17.37;14.60;;;1.70;48.40;;;;;;5019346;28;20258;-88
2022/03/08 00:31:39;;;;;;;16.07;14.37;;;1.60;48.80;;;;;;5011338;28;20842;-88
2022/03/08 00:34:05;;;;;;;16.33;14.67;;;1.60;49.10;;;;;;5023785;28;20221;-90
2022/03/08 00:36:31;;;;;;;16.10;14.40;;;1.50;49.20;;;;;;5024589;28;20660;-88
2022/03/08 00:38:58;;;;;;;16.83;14.73;;;1.40;49.50;;;;;;5026481;28;20178;-89
2022/03/08 00:41:24;;;;;;;17.20;15.30;;;1.40;49.10;;;;;;5026833;28;20264;-90
2022/03/08 00:43:51;;;;;;;16.57;14.50;;;1.30;49.40;;;;;;5025609;28;20173;-89
2022/03/08 00:46:17;;;;;;;15.80;14.10;;;1.40;49.90;;;;;;5025370;28;20205;-89
2022/03/08 00:48:44;;;;;;;14.93;13.27;;;1.50;51.20;;;;;;5026124;28;20178;-89
2022/03/08 00:51:10;;;;;;;17.57;14.77;;;1.50;49.50;;;;;;5026906;28;20224;-89
2022/03/08 00:53:36;;;;;;;15.57;13.73;;;1.50;48.70;;;;;;5010216;28;20201;-89
2022/03/08 00:56:03;;;;;;;16.50;14.80;;;1.60;49.50;;;;;;5021372;28;20193;-90
2022/03/08 00:58:28;;;;;;;16.63;14.43;;;1.60;48.70;;;;;;5042432;28;20182;-90
2022/03/08 01:00:54;;;;;;;16.07;14.40;;;1.50;49.50;;;;;;5023166;28;20208;-90
2022/03/08 01:03:20;;;;;;;15.40;13.80;;;1.60;49.20;;;;;;5045663;28;20185;-89
2022/03/08 01:05:46;;;;;;;13.33;11.93;;;1.50;49.50;;;;;;5044676;28;20204;-90
2022/03/08 01:08:13;;;;;;;14.97;13.43;;;1.60;50.10;;;;;;5027930;28;20182;-89
2022/03/08 01:10:40;;;;;;;15.30;13.70;;;1.60;49.10;;;;;;5026975;28;20263;-89
2022/03/08 01:13:05;;;;;;;16.30;14.17;;;1.60;49.20;;;;;;5031598;28;20275;-90
2022/03/08 01:15:32;;;;;;;15.80;13.70;;;1.70;48.80;;;;;;5026384;28;20217;-89
2022/03/08 01:17:58;;;;;;;16.77;13.97;;;1.70;49.20;;;;;;5025849;28;20182;-90
2022/03/08 01:20:24;;;;;;;16.63;14.60;;;1.80;49.40;;;;;;5025286;28;20245;-89
2022/03/08 01:22:50;;;;;;;17.37;14.43;;;1.80;48.70;;;;;;5026697;28;20174;-90
2022/03/08 01:25:17;;;;;;;16.13;14.17;;;1.70;48.60;;;;;;5042347;28;20193;-90
2022/03/08 01:27:43;;;;;;;15.43;13.90;;;1.50;48.70;;;;;;5009563;28;20249;-89
2022/03/08 01:30:12;;;;;;;15.77;14.07;;;1.50;49.50;;;;;;5008790;28;20201;-89
2022/03/08 01:32:38;;;;;;;18.30;14.13;;;1.50;49.60;;;;;;5024244;28;20185;-88
2022/03/08 01:35:04;;;;;;;15.47;13.50;;;1.50;49.50;;;;;;5018128;28;20214;-88
2022/03/08 01:37:30;;;;;;;15.97;13.90;;;1.40;49.20;;;;;;5025292;28;20190;-88
2022/03/08 01:39:56;;;;;;;15.57;13.97;;;1.30;49.80;;;;;;5007248;28;20218;-88
2022/03/08 01:42:25;;;;;;;15.97;14.37;;;1.40;49.20;;;;;;5018040;28;20190;-88
2022/03/08 01:44:52;;;;;;;16.07;14.37;;;1.50;49.40;;;;;;5029268;28;20231;-87
2022/03/08 01:47:21;;;;;;;15.23;13.63;;;1.50;50.00;;;;;;5029144;28;20205;-87
2022/03/08 01:49:48;;;;;;;16.30;13.37;;;1.50;49.40;;;;;;5027064;28;20267;-88
2022/03/08 01:52:16;;;;;;;15.77;14.00;;;1.60;49.00;;;;;;5025993;28;20246;-88
2022/03/08 01:54:43;;;;;;;14.27;12.87;;;1.60;49.00;;;;;;4995229;28;20285;-87
2022/03/08 01:57:09;;;;;;;15.53;13.50;;;1.50;49.00;;;;;;5026727;28;20193;-88
2022/03/08 01:59:35;;;;;;;15.47;13.70;;;1.40;48.80;;;;;;5027295;28;20224;-87
2022/03/08 02:02:02;;;;;;;14.63;12.87;;;1.30;50.10;;;;;;5041845;28;20201;-87
2022/03/08 02:04:28;;;;;;;14.00;12.43;;;1.30;50.30;;;;;;5027765;28;20193;-88
2022/03/08 02:06:54;;;;;;;15.97;14.13;;;1.20;51.20;;;;;;5026425;28;20201;-87
2022/03/08 02:09:20;;;;;;;14.90;12.93;;;1.40;49.90;;;;;;5028081;28;20189;-88
2022/03/08 02:11:47;;;;;;;16.13;14.37;;;1.30;49.60;;;;;;5028918;28;20209;-87
2022/03/08 02:14:16;;;;;;;15.47;13.30;;;1.30;49.50;;;;;;5026283;28;20889;-88
2022/03/08 02:16:42;;;;;;;13.90;12.50;;;1.20;49.70;;;;;;5005830;28;20170;-87
2022/03/08 02:19:11;;;;;;;14.93;12.97;;;1.20;51.20;;;;;;5027657;28;20193;-87
2022/03/08 02:21:37;;;;;;;13.60;12.20;;;1.20;51.10;;;;;;5036965;28;20219;-87
2022/03/08 02:24:03;;;;;;;14.37;12.97;;;1.30;51.10;;;;;;5022706;28;20519;-87
2022/03/08 02:26:31;;;;;;;13.67;12.27;;;1.40;51.30;;;;;;5013523;28;20194;-88
2022/03/08 02:29:01;;;;;;;15.17;13.63;;;1.40;49.90;;;;;;5017861;28;20238;-87
2022/03/08 02:31:27;;;;;;;15.43;13.43;;;1.50;50.90;;;;;;5026100;28;20223;-87
2022/03/08 02:33:52;;;;;;;14.73;13.17;;;1.40;49.80;;;;;;5030180;28;20280;-87
2022/03/08 02:36:18;;;;;;;15.43;13.37;;;1.30;49.50;;;;;;5010035;28;20232;-87
2022/03/08 02:38:44;;;;;;;13.83;12.53;;;1.30;49.90;;;;;;5026251;28;20193;-87
2022/03/08 02:41:10;;;;;;;13.83;12.30;;;1.20;50.50;;;;;;5026714;28;20225;-86
2022/03/08 02:43:36;;;;;;;14.33;12.40;;;1.30;50.00;;;;;;5025864;28;20193;-87
2022/03/08 02:46:02;;;;;;;15.87;12.57;;;1.40;50.00;;;;;;5008614;28;20186;-87
2022/03/08 02:48:29;;;;;;;13.07;11.67;;;1.30;49.70;;;;;;5026615;28;20695;-87
2022/03/08 02:50:56;;;;;;;14.23;12.63;;;1.40;50.00;;;;;;5010164;28;20241;-87
2022/03/08 02:53:22;;;;;;;13.33;11.97;;;1.40;50.20;;;;;;5026938;28;20193;-88
2022/03/08 02:55:48;;;;;;;13.07;11.80;;;1.30;49.60;;;;;;5025808;28;20194;-87
2022/03/08 02:58:14;;;;;;;13.80;11.80;;;1.20;50.10;;;;;;5026954;28;20182;-90
2022/03/08 03:00:39;;;;;;;13.63;12.33;;;1.20;50.00;;;;;;5030477;28;20225;-90
2022/03/08 03:03:07;;;;;;;13.00;11.60;;;1.00;50.50;;;;;;5033702;28;20190;-90
2022/03/08 03:05:33;;;;;;;14.50;11.93;;;1.00;50.90;;;;;;5026157;28;20622;-89
2022/03/08 03:07:59;;;;;;;14.30;12.90;;;0.90;51.00;;;;;;4991241;28;20680;-89
2022/03/08 03:10:26;;;;;;;15.90;12.40;;;0.80;51.60;;;;;;5021915;28;20201;-89
2022/03/08 03:12:54;;;;;;;13.97;12.57;;;0.70;52.30;;;;;;5027283;28;20204;-89
2022/03/08 03:15:20;;;;;;;14.40;12.13;;;0.60;52.60;;;;;;5027843;28;20636;-90
2022/03/08 03:17:46;;;;;;;13.60;12.17;;;0.60;52.80;;;;;;5026790;28;20195;-90
2022/03/08 03:20:14;;;;;;;13.60;11.97;;;0.50;52.80;;;;;;5029239;28;20213;-90
2022/03/08 03:22:40;;;;;;;14.77;12.70;;;0.40;54.00;;;;;;5027539;28;20281;-89
2022/03/08 03:25:07;;;;;;;13.20;11.57;;;0.30;54.50;;;;;;5028136;28;20185;-90
2022/03/08 03:27:33;;;;;;;15.00;12.17;;;0.20;54.60;;;;;;5027231;28;20194;-89
2022/03/08 03:29:59;;;;;;;14.43;12.10;;;0.30;55.20;;;;;;5009326;28;20299;-89
2022/03/08 03:32:25;;;;;;;13.80;11.97;;;0.20;55.90;;;;;;5027526;28;20268;-90
2022/03/08 03:34:51;;;;;;;13.53;12.13;;;0.00;56.40;;;;;;5026867;28;20312;-89
2022/03/08 03:37:17;;;;;;;14.50;12.70;;;0.10;55.60;;;;;;5027777;28;20189;-89
2022/03/08 03:39:43;;;;;;;15.53;11.77;;;0.00;55.30;;;;;;5025950;28;20170;-89
2022/03/08 03:42:09;;;;;;;13.17;11.73;;;0.00;55.20;;;;;;5027669;28;20195;-90
2022/03/08 03:44:35;;;;;;;12.73;11.37;;;-0.20;56.40;;;;;;5026695;28;20182;-90
2022/03/08 03:47:01;;;;;;;14.07;12.17;;;-0.10;56.40;;;;;;5026003;28;20236;-89
2022/03/08 03:49:27;;;;;;;13.40;11.17;;;-0.10;56.30;;;;;;5026809;28;20181;-89
2022/03/08 03:51:53;;;;;;;15.47;12.13;;;-0.10;55.70;;;;;;5025895;28;20186;-89
2022/03/08 03:54:23;;;;;;;14.70;12.00;;;0.00;55.30;;;;;;5026323;28;20629;-89
2022/03/08 03:56:49;;;;;;;14.23;11.47;;;0.10;55.00;;;;;;5027355;28;20755;-89
2022/03/08 03:59:15;;;;;;;13.17;10.83;;;0.10;55.00;;;;;;5027999;28;20182;-89
2022/03/08 04:01:41;;;;;;;12.50;10.80;;;0.00;55.10;;;;;;5027629;28;20201;-89
2022/03/08 04:04:07;;;;;;;12.60;11.30;;;0.00;55.70;;;;;;5027670;28;20177;-89
2022/03/08 04:06:33;;;;;;;12.37;11.07;;;0.10;55.10;;;;;;5026981;28;20178;-89
2022/03/08 04:09:00;;;;;;;13.33;11.33;;;0.20;54.40;;;;;;5027482;28;20272;-89
2022/03/08 04:11:26;;;;;;;14.23;11.17;;;0.10;54.90;;;;;;5009591;28;20240;-90
2022/03/08 04:13:51;;;;;;;13.33;10.03;;;0.00;55.40;;;;;;5026949;28;20205;-89
2022/03/08 04:16:17;;;;;;;10.53;9.43;;;0.00;56.00;;;;;;5026040;28;20772;-90
2022/03/08 04:18:43;;;;;;;13.17;10.50;;;0.20;55.00;;;;;;5027515;28;20178;-89
2022/03/08 04:21:09;;;;;;;12.97;11.67;;;0.30;54.20;;;;;;5026053;28;20221;-89
2022/03/08 04:23:35;;;;;;;12.20;10.77;;;0.30;54.20;;;;;;5038769;28;20190;-90
2022/03/08 04:26:00;;;;;;;13.07;10.50;;;0.30;54.20;;;;;;5029697;28;20194;-90
2022/03/08 04:28:26;;;;;;;12.93;11.53;;;0.30;54.90;;;;;;5027035;28;20201;-89
2022/03/08 04:30:52;;;;;;;12.43;10.57;;;0.20;54.70;;;;;;5026286;28;20213;-90
2022/03/08 04:33:18;;;;;;;13.37;11.67;;;0.20;54.70;;;;;;5026927;28;20177;-89
2022/03/08 04:35:44;;;;;;;11.83;10.20;;;0.10;54.90;;;;;;5027004;28;20723;-89
2022/03/08 04:38:10;;;;;;;12.03;10.13;;;0.20;55.80;;;;;;5027296;28;20185;-90
2022/03/08 04:40:35;;;;;;;11.43;10.33;;;0.30;54.90;;;;;;5040512;28;20212;-89
2022/03/08 04:43:01;;;;;;;11.80;10.53;;;0.30;54.90;;;;;;5047329;28;20227;-90
2022/03/08 04:45:27;;;;;;;11.07;9.50;;;0.40;53.50;;;;;;5046693;28;20189;-90
2022/03/08 04:47:53;;;;;;;11.60;10.37;;;0.30;53.90;;;;;;5032160;28;20234;-89
2022/03/08 04:50:19;;;;;;;11.67;10.47;;;0.30;54.80;;;;;;5030580;28;20208;-89
2022/03/08 04:52:47;;;;;;;12.17;10.60;;;0.50;53.40;;;;;;5027112;28;20177;-89
2022/03/08 04:55:14;;;;;;;11.27;10.07;;;0.50;53.70;;;;;;5027530;28;20213;-89
2022/03/08 04:57:40;;;;;;;14.97;12.63;;;0.70;54.00;;;;;;5025183;28;20201;-89
2022/03/08 05:00:12;;;;;;;13.37;11.97;;;0.50;52.90;;;;;;5027158;28;20193;-90
2022/03/08 05:02:44;;;;;;;13.17;11.87;;;0.50;53.30;;;;;;5022963;28;20571;-89
2022/03/08 05:05:11;;;;;;;12.67;11.33;;;0.50;53.70;;;;;;5020514;28;20200;-89
2022/03/08 05:07:38;;;;;;;13.17;11.07;;;0.50;53.30;;;;;;5043561;28;20200;-90
2022/03/08 05:10:05;;;;;;;11.93;10.53;;;0.40;54.00;;;;;;5028752;28;20206;-90
2022/03/08 05:12:31;;;;;;;11.53;10.33;;;0.50;54.40;;;;;;5029122;28;20356;-90
2022/03/08 05:14:57;;;;;;;12.03;10.83;;;0.40;54.10;;;;;;5029964;28;20265;-90
2022/03/08 05:17:24;;;;;;;13.13;11.73;;;0.40;54.70;;;;;;5028570;28;20633;-90
2022/03/08 05:19:49;;;;;;;12.63;11.17;;;0.50;54.20;;;;;;5029467;28;20736;-89
2022/03/08 05:22:15;;;;;;;12.53;11.20;;;0.40;54.50;;;;;;5035156;28;20223;-89
2022/03/08 05:24:41;;;;;;;13.23;11.13;;;0.30;55.90;;;;;;5045546;28;20197;-90
2022/03/08 05:27:07;;;;;;;11.63;10.17;;;0.30;55.70;;;;;;5029338;28;20189;-89
2022/03/08 05:29:34;;;;;;;14.03;12.57;;;0.30;55.10;;;;;;5013652;28;20169;-90
2022/03/08 05:32:00;;;;;;;13.63;12.20;;;0.30;54.70;;;;;;5033850;28;20190;-90
2022/03/08 05:34:27;;;;;;;12.83;10.67;;;0.20;54.90;;;;;;5034940;28;20304;-90
2022/03/08 05:36:53;;;;;;;13.03;10.57;;;0.20;55.10;;;;;;5019134;28;20228;-90
2022/03/08 05:39:19;;;;;;;11.60;10.40;;;0.30;54.70;;;;;;5033202;28;20169;-90
2022/03/08 05:41:45;;;;;;;13.33;10.50;;;0.30;56.40;;;;;;5039356;28;20208;-90
2022/03/08 05:44:11;;;;;;;11.87;10.70;;;0.40;54.10;;;;;;5029037;28;20198;-90
2022/03/08 05:46:36;;;;;;;12.20;11.00;;;0.30;54.20;;;;;;5041227;28;20300;-90
2022/03/08 05:49:02;;;;;;;10.87;9.73;;;0.20;55.10;;;;;;5048353;28;20274;-90
2022/03/08 05:51:28;;;;;;;13.23;10.90;;;0.20;55.00;;;;;;5050193;28;20268;-90
2022/03/08 05:53:54;;;;;;;14.10;11.73;;;0.20;55.20;;;;;;5040019;28;20190;-89
2022/03/08 05:56:20;;;;;;;12.97;10.27;;;0.10;55.70;;;;;;5028480;28;20722;-89
2022/03/08 05:58:46;;;;;;;13.20;10.33;;;0.00;56.10;;;;;;5029488;28;20166;-89
2022/03/08 06:01:12;;;;;;;12.67;11.17;;;0.00;56.10;;;;;;5030311;28;20201;-89
2022/03/08 06:03:38;;;;;;;12.90;11.50;;;-0.10;57.00;;;;;;5027629;28;20194;-89
2022/03/08 06:06:04;;;;;;;21.87;19.57;;;-0.20;56.30;;;;;;5029590;28;20245;-89
2022/03/08 06:08:30;;;;;;;11.33;10.10;;;-0.20;56.80;;;;;;5026758;28;20205;-88
2022/03/08 06:10:56;;;;;;;13.60;10.53;;;-0.20;57.20;;;;;;5028094;28;20206;-88
2022/03/08 06:13:24;;;;;;;13.00;11.60;;;-0.20;57.00;;;;;;5020263;28;20189;-89
2022/03/08 06:15:50;;;;;;;13.60;11.90;;;-0.20;56.70;;;;;;5026580;28;20220;-89
2022/03/08 06:18:16;;;;;;;12.57;10.97;;;-0.20;57.00;;;;;;5029449;28;20185;-89
2022/03/08 06:20:42;;;;;;;12.00;9.80;;;-0.10;56.90;;;;;;5026585;28;20210;-89
2022/03/08 06:23:08;;;;;;;11.70;10.47;;;-0.10;58.00;;;;;;5011355;28;20186;-89
2022/03/08 06:25:34;;;;;;;11.60;10.40;;;0.10;56.20;;;;;;5026666;28;20202;-90
2022/03/08 06:27:59;;;;;;;12.47;10.67;;;0.10;56.00;;;;;;5021285;28;20249;-89
2022/03/08 06:30:25;;;;;;;12.73;11.43;;;0.10;55.50;;;;;;5007730;28;20189;-89
2022/03/08 06:32:51;;;;;;;14.57;11.17;;;0.10;55.50;;;;;;5026267;28;20229;-89
2022/03/08 06:35:19;;;;;;;12.43;11.13;;;0.20;55.20;;;;;;5010818;28;20225;-89
2022/03/08 06:37:45;;;;;;;14.20;11.67;;;0.20;55.40;;;;;;5028750;28;20190;-89
2022/03/08 06:40:11;;;;;;;12.43;11.13;;;0.20;55.20;;;;;;5017049;28;20244;-89
2022/03/08 06:42:37;;;;;;;16.43;13.10;;;0.20;54.90;;;;;;5022129;28;20181;-90
2022/03/08 06:45:05;;;;;;;19.60;14.90;;;0.10;55.30;;;;;;5028072;28;20170;-89
2022/03/08 06:47:32;;;;;;;16.80;13.17;;;0.10;55.10;;;;;;5027341;28;20219;-90
2022/03/08 06:49:58;;;;;;;16.30;12.70;;;0.10;55.50;;;;;;5027501;28;20217;-89
2022/03/08 06:52:23;;;;;;;15.03;12.47;;;0.10;55.90;;;;;;5025673;28;20208;-89
2022/03/08 06:54:49;;;;;;;13.57;12.17;;;0.20;55.40;;;;;;5026171;28;20221;-89
2022/03/08 06:57:15;;;;;;;12.33;10.93;;;0.30;55.40;;;;;;5029867;28;20194;-90
2022/03/08 06:59:41;;;;;;;13.90;10.97;;;0.30;55.60;;;;;;5026401;28;20216;-89
2022/03/08 07:02:07;;;;;;;12.83;10.33;;;0.30;55.60;;;;;;5010582;28;20251;-89
2022/03/08 07:04:33;;;;;;;12.10;10.80;;;0.40;54.50;;;;;;5028414;28;20201;-91
2022/03/08 07:06:58;;;;;;;11.43;10.23;;;0.30;54.30;;;;;;5026037;28;20177;-91
2022/03/08 07:09:24;;;;;;;13.30;10.87;;;0.40;54.00;;;;;;5022911;28;20197;-89
2022/03/08 07:11:50;;;;;;;12.63;10.07;;;0.40;54.00;;;;;;5025132;28;20217;-90
2022/03/08 07:14:17;;;;;;;12.83;10.60;;;0.30;53.80;;;;;;5011264;28;20221;-89
2022/03/08 07:16:44;;;;;;;12.23;11.03;;;0.30;54.20;;;;;;5026913;28;20192;-89
2022/03/08 07:19:09;;;;;;;16.77;13.07;;;0.40;54.20;;;;;;5023767;28;20192;-89
2022/03/08 07:21:35;;;;;;;17.60;13.30;;;0.40;53.80;;;;;;5030860;28;20299;-90
2022/03/08 07:24:02;;;;;;;18.17;15.57;;;0.30;53.70;;;;;;5020701;28;20217;-90
2022/03/08 07:26:27;;;;;;;16.70;12.30;;;0.40;54.20;;;;;;5023947;28;20285;-90
2022/03/08 07:28:53;;;;;;;19.73;14.20;;;0.40;53.50;;;;;;5021206;28;20201;-89
2022/03/08 07:31:19;;;;;;;15.83;13.33;;;0.30;54.00;;;;;;5020665;28;20608;-91
2022/03/08 07:33:45;;;;;;;23.13;16.77;;;0.40;54.10;;;;;;5013568;28;20257;-89
2022/03/08 07:36:10;;;;;;;23.37;17.03;;;0.40;54.10;;;;;;5022681;28;20205;-89
2022/03/08 07:38:36;;;;;;;17.13;13.17;;;0.40;54.00;;;;;;5025993;28;20787;-89
2022/03/08 07:41:06;;;;;;;20.23;13.63;;;0.50;54.20;;;;;;5020497;28;20819;-89
2022/03/08 07:43:34;;;;;;;15.90;12.90;;;0.60;54.20;;;;;;5013951;28;20340;-89
2022/03/08 07:46:00;;;;;;;18.30;14.60;;;0.60;53.70;;;;;;5024785;28;20209;-89
2022/03/08 07:48:26;;;;;;;15.73;12.07;;;0.60;53.80;;;;;;5024714;28;20272;-89
2022/03/08 07:50:52;;;;;;;13.70;11.50;;;0.80;53.70;;;;;;5003952;28;20210;-89
2022/03/08 07:53:18;;;;;;;13.13;11.67;;;0.80;54.30;;;;;;5021047;28;20232;-90
2022/03/08 07:55:43;;;;;;;12.10;10.77;;;0.90;52.90;;;;;;5024088;28;20243;-90
2022/03/08 07:58:12;;;;;;;13.00;11.43;;;1.00;52.90;;;;;;5021718;28;20268;-90
2022/03/08 08:00:39;;;;;;;12.47;11.10;;;1.10;52.70;;;;;;5024740;28;20205;-91
2022/03/08 08:03:06;;;;;;;12.30;9.90;;;1.20;52.50;;;;;;5032910;28;20201;-90
2022/03/08 08:05:34;;;;;;;11.40;10.20;;;1.30;51.40;;;;;;5013131;28;20703;-90
2022/03/08 08:08:00;;;;;;;12.70;10.40;;;1.40;51.30;;;;;;5021992;28;20201;-90
2022/03/08 08:10:26;;;;;;;11.53;10.07;;;1.60;50.00;;;;;;5024676;28;20836;-89
2022/03/08 08:12:52;;;;;;;11.53;9.90;;;1.70;49.90;;;;;;5017746;28;20733;-90
2022/03/08 08:15:18;;;;;;;12.40;9.87;;;1.90;49.30;;;;;;5036271;28;20217;-89
2022/03/08 08:17:44;;;;;;;12.13;9.80;;;1.90;48.60;;;;;;5023993;28;20253;-90
2022/03/08 08:20:10;;;;;;;11.07;9.93;;;2.00;48.50;;;;;;5019513;28;20599;-89
2022/03/08 08:22:36;;;;;;;11.47;9.00;;;2.10;48.20;;;;;;5019896;28;20221;-90
2022/03/08 08:25:03;;;;;;;10.33;8.80;;;2.30;47.70;;;;;;5019985;28;20185;-89
2022/03/08 08:27:29;;;;;;;9.90;8.90;;;2.40;46.70;;;;;;5022302;28;20243;-89
2022/03/08 08:29:55;;;;;;;10.73;8.47;;;2.50;46.00;;;;;;5017946;28;20636;-89
2022/03/08 08:32:20;;;;;;;10.50;8.90;;;2.60;45.90;;;;;;5021206;28;20220;-90
2022/03/08 08:34:46;;;;;;;9.53;8.60;;;2.70;45.50;;;;;;5017352;28;20245;-88
2022/03/08 08:37:12;;;;;;;9.27;8.33;;;2.80;45.30;;;;;;5015861;28;20208;-90
2022/03/08 08:39:38;;;;;;;9.70;8.57;;;2.90;45.50;;;;;;5017273;28;20198;-89
2022/03/08 08:42:04;;;;;;;9.70;8.70;;;3.00;44.90;;;;;;5018241;28;20197;-90
2022/03/08 08:44:30;;;;;;;9.90;9.00;;;3.10;44.60;;;;;;5018595;28;20201;-90
2022/03/08 08:46:56;;;;;;;9.57;8.67;;;3.10;44.40;;;;;;5017294;28;20214;-89
2022/03/08 08:49:23;;;;;;;10.87;8.87;;;3.20;44.20;;;;;;5024516;28;20189;-89
2022/03/08 08:51:49;;;;;;;10.13;9.03;;;3.30;44.30;;;;;;5031191;28;20271;-89
2022/03/08 08:54:15;;;;;;;8.87;7.93;;;3.40;44.50;;;;;;5029909;28;20244;-89
2022/03/08 08:56:40;;;;;;;9.03;8.03;;;3.50;43.50;;;;;;5024699;28;20209;-89
2022/03/08 08:59:06;;;;;;;9.23;8.33;;;3.60;43.20;;;;;;5029473;28;20182;-89
2022/03/08 09:01:32;;;;;;;8.80;8.00;;;3.70;43.60;;;;;;5018644;28;20951;-89
2022/03/08 09:03:58;;;;;;;9.90;8.50;;;3.80;43.10;;;;;;5021330;28;20288;-90
2022/03/08 09:06:25;;;;;;;12.40;8.33;;;3.90;43.40;;;;;;5023413;28;20196;-89
2022/03/08 09:08:51;;;;;;;9.00;8.07;;;4.00;44.20;;;;;;5019624;28;20197;-90
2022/03/08 09:11:17;;;;;;;8.10;7.30;;;4.20;43.30;;;;;;5005456;28;20217;-89
2022/03/08 09:13:43;;;;;;;8.07;7.10;;;4.30;42.80;;;;;;5027227;28;20243;-90
2022/03/08 09:16:09;;;;;;;8.63;7.73;;;4.50;42.50;;;;;;5016138;28;20190;-90
2022/03/08 09:18:35;;;;;;;8.83;7.77;;;4.60;42.50;;;;;;5025875;28;20181;-91
2022/03/08 09:21:02;;;;;;;8.77;7.67;;;4.70;42.00;;;;;;5032593;28;20290;-90
2022/03/08 09:23:27;;;;;;;8.07;7.10;;;4.80;42.80;;;;;;5034389;28;20681;-91
2022/03/08 09:25:53;;;;;;;8.83;7.93;;;5.00;41.50;;;;;;5025055;28;20213;-90
2022/03/08 09:28:19;;;;;;;8.10;7.37;;;5.20;41.20;;;;;;5023535;28;20198;-90
2022/03/08 09:30:46;;;;;;;8.57;7.77;;;5.30;41.30;;;;;;5023126;28;20240;-89
2022/03/08 09:33:12;;;;;;;8.50;7.80;;;5.40;40.60;;;;;;5024415;28;20220;-90
2022/03/08 09:35:38;;;;;;;8.33;7.23;;;5.60;40.20;;;;;;5022146;28;20221;-90
2022/03/08 09:38:04;;;;;;;8.73;7.83;;;5.80;39.40;;;;;;5018645;28;20190;-90
2022/03/08 09:40:30;;;;;;;7.57;6.97;;;5.80;39.30;;;;;;5017992;28;20339;-91
2022/03/08 09:42:56;;;;;;;8.13;7.30;;;5.90;39.40;;;;;;5024415;28;20197;-90
2022/03/08 09:45:22;;;;;;;10.00;8.33;;;6.00;39.80;;;;;;5018605;28;20178;-90
2022/03/08 09:47:49;;;;;;;10.73;8.43;;;6.10;39.20;;;;;;5023218;28;20193;-90
2022/03/08 09:50:16;;;;;;;14.03;10.37;;;6.30;39.20;;;;;;5019996;28;20218;-90
2022/03/08 09:52:42;;;;;;;9.77;8.43;;;6.40;38.50;;;;;;5021005;28;20273;-90
2022/03/08 09:55:12;;;;;;;8.87;8.00;;;6.50;38.60;;;;;;5022090;28;20197;-90
2022/03/08 09:57:38;;;;;;;10.43;8.10;;;6.60;39.00;;;;;;5021897;28;20736;-90
2022/03/08 10:00:06;;;;;;;9.03;8.20;;;6.80;38.30;;;;;;5019558;28;20234;-90
2022/03/08 10:03:01;;;;;;;8.20;7.40;;;7.00;38.00;;;;;;5020108;28;20185;-90
2022/03/08 10:05:37;;;;;;;10.17;9.00;;;7.20;37.30;;;;;;5008931;28;20252;-90
2022/03/08 10:08:10;;;;;;;9.03;8.20;;;7.30;37.60;;;;;;5034842;28;20190;-90
2022/03/08 10:10:50;;;;;;;11.43;9.80;;;7.50;36.90;;;;;;5019193;28;20665;-90
2022/03/08 10:13:18;;;;;;;8.47;7.57;;;7.80;36.10;;;;;;5020853;28;20208;-90
2022/03/08 10:15:44;;;;;;;9.73;8.50;;;8.00;35.50;;;;;;5025228;28;20212;-91
2022/03/08 10:18:10;;;;;;;9.33;8.43;;;8.00;35.60;;;;;;5037991;28;20204;-90
2022/03/08 10:20:35;;;;;;;10.10;8.67;;;7.90;34.80;;;;;;5023351;28;20663;-90
2022/03/08 10:23:13;;;;;;;10.97;9.87;;;8.20;35.10;;;;;;5020161;28;20190;-90
2022/03/08 10:25:41;;;;;;;9.83;8.90;;;8.30;35.80;;;;;;5018901;28;20239;-90
2022/03/08 10:28:07;;;;;;;8.60;7.60;;;8.40;34.40;;;;;;5022674;28;20213;-90
2022/03/08 10:30:45;;;;;;;9.07;8.27;;;8.60;34.40;;;;;;5025056;28;20564;-90
2022/03/08 10:33:12;;;;;;;9.87;8.83;;;8.60;34.20;;;;;;5008190;28;20185;-88
2022/03/08 10:35:40;;;;;;;9.30;8.40;;;8.60;34.60;;;;;;5024353;28;20209;-90
2022/03/08 10:38:09;;;;;;;10.20;9.03;;;8.80;34.20;;;;;;5025132;28;20186;-91
2022/03/08 10:40:35;;;;;;;10.47;8.27;;;8.90;34.20;;;;;;5023916;28;20221;-91
2022/03/08 10:43:19;;;;;;;11.60;10.33;;;9.20;33.90;;;;;;5016201;28;20223;-91
2022/03/08 10:45:47;;;;;;;9.37;8.47;;;9.50;32.70;;;;;;5023583;28;20189;-91
2022/03/08 10:48:14;;;;;;;8.90;8.10;;;9.50;32.30;;;;;;5007048;28;20190;-90
2022/03/08 10:50:42;;;;;;;8.97;8.17;;;9.60;32.10;;;;;;5024184;28;20213;-90
2022/03/08 10:53:11;;;;;;;8.37;7.57;;;9.80;31.40;;;;;;5022877;28;20181;-91
2022/03/08 10:55:49;;;;;;;33.10;11.20;;;10.00;31.60;;;;;;5026030;28;20776;-90
2022/03/08 10:58:16;;;;;;;9.23;8.30;;;10.20;31.30;;;;;;5026034;28;20186;-90
2022/03/08 11:00:53;;;;;;;9.30;8.40;;;10.20;30.80;;;;;;5027265;28;20198;-91
2022/03/08 11:03:21;;;;;;;9.00;8.10;;;10.10;31.20;;;;;;5026341;28;20261;-91
2022/03/08 11:05:48;;;;;;;8.80;7.90;;;10.00;30.90;;;;;;5027662;28;20185;-91
2022/03/08 11:08:15;;;;;;;8.67;7.60;;;9.90;31.50;;;;;;5025519;28;20204;-90
2022/03/08 11:10:42;;;;;;;8.43;7.57;;;10.20;30.60;;;;;;5030072;28;20210;-89
2022/03/08 11:13:09;;;;;;;8.03;7.33;;;10.40;30.30;;;;;;5023008;28;20198;-91
2022/03/08 11:15:37;;;;;;;9.13;8.33;;;10.30;30.50;;;;;;5013845;28;20209;-90
2022/03/08 11:18:08;;;;;;;8.67;7.87;;;10.80;29.70;;;;;;5027289;28;20224;-90
2022/03/08 11:20:36;;;;;;;7.30;6.67;;;10.80;29.40;;;;;;5021919;28;20230;-90
2022/03/08 11:23:03;;;;;;;8.00;7.33;;;11.10;28.50;;;;;;5017708;28;20182;-90
2022/03/08 11:25:34;;;;;;;7.37;6.70;;;11.10;28.60;;;;;;5027167;28;20232;-90
2022/03/08 11:28:02;;;;;;;8.17;7.40;;;11.20;28.60;;;;;;5041061;28;20185;-90
2022/03/08 11:30:32;;;;;;;7.67;6.97;;;11.30;29.20;;;;;;5031501;28;20209;-90
2022/03/08 11:33:46;;;;;;;8.17;7.37;;;11.30;28.30;;;;;;5027395;28;20182;-90
2022/03/08 11:36:35;;;;;;;13.43;6.90;;;11.20;28.40;;;;;;5012161;28;20209;-90
2022/03/08 11:39:16;;;;;;;7.93;7.23;;;11.20;28.70;;;;;;5025782;28;20161;-90
2022/03/08 11:41:45;;;;;;;9.23;6.90;;;11.40;28.60;;;;;;5026506;28;20202;-90
2022/03/08 11:44:29;;;;;;;7.57;6.87;;;11.60;28.20;;;;;;5034138;28;20231;-90
2022/03/08 11:47:09;;;;;;;7.77;6.90;;;11.90;28.10;;;;;;5040557;28;20253;-88
2022/03/08 11:49:54;;;;;;;7.40;6.80;;;12.00;27.80;;;;;;5030575;28;20185;-88
2022/03/08 11:52:33;;;;;;;7.03;6.33;;;12.00;27.30;;;;;;5010384;28;20182;-90
2022/03/08 11:55:12;;;;;;;7.47;6.60;;;12.50;26.30;;;;;;5024744;28;20235;-90
2022/03/08 11:58:02;;;;;;;11.80;6.93;;;12.20;26.40;;;;;;5029771;28;20181;-90
2022/03/08 12:00:33;;;;;;;7.90;7.30;;;12.20;26.50;;;;;;5014419;28;21549;-90
2022/03/08 12:03:11;;;;;;;8.70;6.73;;;12.10;27.10;;;;;;5024270;28;20190;-90
2022/03/08 12:06:01;;;;;;;7.23;6.60;;;12.40;26.30;;;;;;5025386;28;20197;-89
2022/03/08 12:08:30;;;;;;;7.80;7.00;;;12.60;27.50;;;;;;5021847;28;20210;-90
2022/03/08 12:11:01;;;;;;;6.77;6.17;;;12.80;26.50;;;;;;5011654;28;20205;-90
2022/03/08 12:13:36;;;;;;;6.83;6.27;;;12.90;25.80;;;;;;5026418;28;20666;-90
2022/03/08 12:16:08;;;;;;;7.20;6.50;;;13.50;25.50;;;;;;5024316;28;20217;-89
2022/03/08 12:18:46;;;;;;;8.83;7.17;;;13.70;25.50;;;;;;5024610;28;20208;-90
2022/03/08 12:21:14;;;;;;;10.07;6.97;;;14.00;24.40;;;;;;5025414;28;20206;-91
2022/03/08 12:23:55;;;;;;;7.53;6.87;;;13.80;25.30;;;;;;5027590;28;20188;-90
2022/03/08 12:26:37;;;;;;;8.63;6.73;;;13.40;26.20;;;;;;5024962;28;20204;-90
2022/03/08 12:29:03;;;;;;;7.17;6.50;;;13.60;25.70;;;;;;5025916;28;20208;-89
2022/03/08 12:31:29;;;;;;;8.47;7.77;;;13.70;25.10;;;;;;5029622;28;20197;-91
2022/03/08 12:34:08;;;;;;;7.73;6.93;;;13.60;25.20;;;;;;5037152;28;20252;-89
2022/03/08 12:36:34;;;;;;;7.93;7.23;;;13.50;25.80;;;;;;5034507;28;20197;-90
2022/03/08 12:39:00;;;;;;;8.03;7.33;;;14.00;24.50;;;;;;5031330;28;20256;-90
2022/03/08 12:41:27;;;;;;;7.50;6.90;;;14.00;25.20;;;;;;4995232;28;20270;-89